createdAt,value
2018-06-29T00:00:16.751Z,19.02
2018-06-29T00:01:16.719Z,18.96
2018-06-29T00:02:16.703Z,19.00
2018-06-29T00:03:16.655Z,19.02
2018-06-29T00:04:16.640Z,19.04
2018-06-29T00:05:16.629Z,19.08
2018-06-29T00:06:16.567Z,18.96
2018-06-29T00:07:16.533Z,18.96
2018-06-29T00:08:16.549Z,19.09
2018-06-29T00:09:16.472Z,19.02
2018-06-29T00:10:16.421Z,19.00
2018-06-29T00:11:16.412Z,19.08
2018-06-29T00:12:16.402Z,19.09
2018-06-29T00:13:16.350Z,18.96
2018-06-29T00:14:16.322Z,18.90
2018-06-29T00:15:16.291Z,18.95
2018-06-29T00:16:16.260Z,18.95
2018-06-29T00:17:16.241Z,18.86
2018-06-29T00:18:16.182Z,18.95
2018-06-29T00:19:16.165Z,18.92
2018-06-29T00:20:16.132Z,18.95
2018-06-29T00:21:16.074Z,18.93
2018-06-29T00:22:16.072Z,18.92
2018-06-29T00:23:16.012Z,18.93
2018-06-29T00:24:16.037Z,18.92
2018-06-29T00:25:15.984Z,18.90
2018-06-29T00:26:15.958Z,18.93
2018-06-29T00:27:16.105Z,18.88
2018-06-29T00:28:15.844Z,18.88
2018-06-29T00:29:15.817Z,18.84
2018-06-29T00:30:15.895Z,18.83
2018-06-29T00:31:15.816Z,18.88
2018-06-29T00:32:15.717Z,18.81
2018-06-29T00:33:15.711Z,18.81
2018-06-29T00:34:15.698Z,18.80
2018-06-29T00:35:15.658Z,18.86
2018-06-29T00:36:15.590Z,18.80
2018-06-29T00:37:15.569Z,18.77
2018-06-29T00:38:15.552Z,18.80
2018-06-29T00:39:15.495Z,18.78
2018-06-29T00:40:15.486Z,18.75
2018-06-29T00:41:15.441Z,18.78
2018-06-29T00:42:15.425Z,18.73
2018-06-29T00:43:15.378Z,18.71
2018-06-29T00:44:15.351Z,18.65
2018-06-29T00:45:15.318Z,18.66
2018-06-29T00:46:15.275Z,18.74
2018-06-29T00:47:15.288Z,18.66
2018-06-29T00:48:15.232Z,18.74
2018-06-29T00:49:15.241Z,18.73
2018-06-29T00:50:15.149Z,18.70
2018-06-29T00:51:15.121Z,18.77
2018-06-29T00:52:15.101Z,18.63
2018-06-29T00:53:15.141Z,18.73
2018-06-29T00:54:15.035Z,18.73
2018-06-29T00:55:15.005Z,18.75
2018-06-29T00:56:14.954Z,18.63
2018-06-29T00:57:14.929Z,18.74
2018-06-29T00:58:14.914Z,18.78
2018-06-29T00:59:14.897Z,18.74
2018-06-29T01:00:14.845Z,18.66
2018-06-29T01:01:14.807Z,18.60
2018-06-29T01:02:14.760Z,18.66
2018-06-29T01:03:14.727Z,18.63
2018-06-29T01:04:14.699Z,18.56
2018-06-29T01:05:14.697Z,18.55
2018-06-29T01:06:14.635Z,18.53
2018-06-29T01:07:14.662Z,18.50
2018-06-29T01:08:14.649Z,18.50
2018-06-29T01:09:14.564Z,18.49
2018-06-29T01:10:14.513Z,18.49
2018-06-29T01:11:14.473Z,18.47
2018-06-29T01:12:14.445Z,18.47
2018-06-29T01:13:14.481Z,18.44
2018-06-29T01:14:14.413Z,18.38
2018-06-29T01:15:14.347Z,18.40
2018-06-29T01:16:14.343Z,18.38
2018-06-29T01:17:14.279Z,18.33
2018-06-29T01:18:14.266Z,18.23
2018-06-29T01:19:14.223Z,18.19
2018-06-29T01:20:14.190Z,18.20
2018-06-29T01:21:14.150Z,18.13
2018-06-29T01:22:14.118Z,18.15
2018-06-29T01:23:14.099Z,18.08
2018-06-29T01:24:14.065Z,18.05
2018-06-29T01:25:14.037Z,18.07
2018-06-29T01:26:14.089Z,18.01
2018-06-29T01:27:13.967Z,18.01
2018-06-29T01:28:13.956Z,18.10
2018-06-29T01:29:13.955Z,17.97
2018-06-29T01:30:13.882Z,17.85
2018-06-29T01:31:13.835Z,17.90
2018-06-29T01:32:13.803Z,17.74
2018-06-29T01:33:13.776Z,17.79
2018-06-29T01:34:13.845Z,17.64
2018-06-29T01:35:13.710Z,17.68
2018-06-29T01:36:13.683Z,17.51
2018-06-29T01:37:13.665Z,17.51
2018-06-29T01:38:13.611Z,17.46
2018-06-29T01:39:13.579Z,17.45
2018-06-29T01:40:13.583Z,17.34
2018-06-29T01:41:13.512Z,17.38
2018-06-29T01:42:14.475Z,17.29
2018-06-29T01:43:13.448Z,17.26
2018-06-29T01:44:14.521Z,17.36
2018-06-29T01:45:13.996Z,17.23
2018-06-29T01:46:13.359Z,17.20
2018-06-29T01:47:13.358Z,17.23
2018-06-29T01:48:13.299Z,17.36
2018-06-29T01:49:13.282Z,17.42
2018-06-29T01:50:13.243Z,17.46
2018-06-29T01:51:13.185Z,17.38
2018-06-29T01:52:13.232Z,17.41
2018-06-29T01:53:13.160Z,17.34
2018-06-29T01:54:13.095Z,17.39
2018-06-29T01:55:13.095Z,17.36
2018-06-29T01:56:13.035Z,17.29
2018-06-29T01:57:12.991Z,17.27
2018-06-29T01:58:12.995Z,17.23
2018-06-29T01:59:12.930Z,17.20
2018-06-29T02:00:12.899Z,17.20
2018-06-29T02:01:12.871Z,17.16
2018-06-29T02:02:12.830Z,17.22
2018-06-29T02:03:12.799Z,17.16
2018-06-29T02:04:12.800Z,17.09
2018-06-29T02:05:12.751Z,17.11
2018-06-29T02:06:12.701Z,17.09
2018-06-29T02:07:12.703Z,17.09
2018-06-29T02:08:12.641Z,17.14
2018-06-29T02:09:12.611Z,17.11
2018-06-29T02:10:12.591Z,17.14
2018-06-29T02:11:12.547Z,17.12
2018-06-29T02:12:12.516Z,17.16
2018-06-29T02:13:12.487Z,17.20
2018-06-29T02:14:12.477Z,17.12
2018-06-29T02:15:12.430Z,17.20
2018-06-29T02:16:12.380Z,17.23
2018-06-29T02:17:12.347Z,17.29
2018-06-29T02:18:12.313Z,17.29
2018-06-29T02:19:12.296Z,17.29
2018-06-29T02:20:12.274Z,17.27
2018-06-29T02:21:12.265Z,17.30
2018-06-29T02:22:12.190Z,17.27
2018-06-29T02:23:12.171Z,17.31
2018-06-29T02:24:12.134Z,17.22
2018-06-29T02:25:12.094Z,17.34
2018-06-29T02:26:12.050Z,17.24
2018-06-29T02:27:12.019Z,17.24
2018-06-29T02:28:12.008Z,17.23
2018-06-29T02:29:11.998Z,17.20
2018-06-29T02:30:11.922Z,17.16
2018-06-29T02:31:11.929Z,17.23
2018-06-29T02:32:11.857Z,17.12
2018-06-29T02:33:11.828Z,17.16
2018-06-29T02:34:11.802Z,17.14
2018-06-29T02:35:11.769Z,17.19
2018-06-29T02:36:11.746Z,17.14
2018-06-29T02:37:11.696Z,17.16
2018-06-29T02:38:11.669Z,17.16
2018-06-29T02:39:11.630Z,17.04
2018-06-29T02:40:11.614Z,17.11
2018-06-29T02:41:11.601Z,17.08
2018-06-29T02:42:11.565Z,16.96
2018-06-29T02:43:11.506Z,16.91
2018-06-29T02:44:11.468Z,16.84
2018-06-29T02:45:11.684Z,16.74
2018-06-29T02:46:11.398Z,16.75
2018-06-29T02:47:11.373Z,16.71
2018-06-29T02:48:11.340Z,16.65
2018-06-29T02:49:11.312Z,16.57
2018-06-29T02:50:11.281Z,16.54
2018-06-29T02:51:11.239Z,16.64
2018-06-29T02:52:11.222Z,16.56
2018-06-29T02:53:11.181Z,16.56
2018-06-29T02:54:11.151Z,16.57
2018-06-29T02:55:11.111Z,16.51
2018-06-29T02:56:11.078Z,16.53
2018-06-29T02:57:11.045Z,16.43
2018-06-29T02:58:11.054Z,16.49
2018-06-29T02:59:10.990Z,16.50
2018-06-29T03:00:10.966Z,16.56
2018-06-29T03:01:10.922Z,16.57
2018-06-29T03:02:10.890Z,16.53
2018-06-29T03:03:10.851Z,16.72
2018-06-29T03:04:10.831Z,16.66
2018-06-29T03:05:10.785Z,16.61
2018-06-29T03:06:10.754Z,16.76
2018-06-29T03:07:10.723Z,16.75
2018-06-29T03:08:10.689Z,16.69
2018-06-29T03:09:10.653Z,16.69
2018-06-29T03:10:10.661Z,16.68
2018-06-29T03:11:10.584Z,16.69
2018-06-29T03:12:10.553Z,16.74
2018-06-29T03:13:10.532Z,16.72
2018-06-29T03:14:10.525Z,16.76
2018-06-29T03:15:10.493Z,16.72
2018-06-29T03:16:10.430Z,16.72
2018-06-29T03:17:10.389Z,16.69
2018-06-29T03:18:10.362Z,16.69
2018-06-29T03:19:10.322Z,16.68
2018-06-29T03:20:10.295Z,16.78
2018-06-29T03:21:10.268Z,16.68
2018-06-29T03:22:10.232Z,16.64
2018-06-29T03:23:10.225Z,16.58
2018-06-29T03:24:10.167Z,16.71
2018-06-29T03:25:10.195Z,16.56
2018-06-29T03:26:10.107Z,16.56
2018-06-29T03:27:10.064Z,16.56
2018-06-29T03:28:10.046Z,16.54
2018-06-29T03:29:10.017Z,16.57
2018-06-29T03:30:09.979Z,16.51
2018-06-29T03:31:09.941Z,16.49
2018-06-29T03:32:09.921Z,16.43
2018-06-29T03:33:09.881Z,16.50
2018-06-29T03:34:09.835Z,16.43
2018-06-29T03:35:09.813Z,16.42
2018-06-29T03:36:09.777Z,16.42
2018-06-29T03:37:09.757Z,16.50
2018-06-29T03:38:09.707Z,16.32
2018-06-29T03:39:09.674Z,16.36
2018-06-29T03:40:09.649Z,16.38
2018-06-29T03:41:09.612Z,16.26
2018-06-29T03:42:09.586Z,16.32
2018-06-29T03:43:09.549Z,16.38
2018-06-29T03:44:09.557Z,16.21
2018-06-29T03:45:09.482Z,16.31
2018-06-29T03:46:09.448Z,16.33
2018-06-29T03:47:09.413Z,16.23
2018-06-29T03:48:09.385Z,16.28
2018-06-29T03:49:09.346Z,16.32
2018-06-29T03:50:09.314Z,16.32
2018-06-29T03:51:09.310Z,16.29
2018-06-29T03:52:09.252Z,16.33
2018-06-29T03:53:09.211Z,16.29
2018-06-29T03:54:09.196Z,16.47
2018-06-29T03:55:09.152Z,16.38
2018-06-29T03:56:09.119Z,16.51
2018-06-29T03:57:09.085Z,16.57
2018-06-29T03:58:09.053Z,16.60
2018-06-29T03:59:09.174Z,16.65
2018-06-29T04:00:08.990Z,16.64
2018-06-29T04:01:08.956Z,16.65
2018-06-29T04:02:08.937Z,16.69
2018-06-29T04:03:08.891Z,16.75
2018-06-29T04:04:08.853Z,16.86
2018-06-29T04:05:08.825Z,16.90
2018-06-29T04:06:08.796Z,16.91
2018-06-29T04:07:08.761Z,16.93
2018-06-29T04:08:08.729Z,16.96
2018-06-29T04:09:08.689Z,16.94
2018-06-29T04:10:08.663Z,17.01
2018-06-29T04:11:08.629Z,16.97
2018-06-29T04:12:08.599Z,17.08
2018-06-29T04:13:08.564Z,17.11
2018-06-29T04:14:08.530Z,17.09
2018-06-29T04:15:08.500Z,17.09
2018-06-29T04:16:08.515Z,17.08
2018-06-29T04:17:08.444Z,17.11
2018-06-29T04:18:08.403Z,17.06
2018-06-29T04:19:08.371Z,16.96
2018-06-29T04:20:08.335Z,17.09
2018-06-29T04:21:08.306Z,17.11
2018-06-29T04:22:08.266Z,17.05
2018-06-29T04:23:08.242Z,17.09
2018-06-29T04:24:08.209Z,17.08
2018-06-29T04:25:08.175Z,17.15
2018-06-29T04:26:08.144Z,17.08
2018-06-29T04:27:08.112Z,17.20
2018-06-29T04:28:08.091Z,17.29
2018-06-29T04:29:08.042Z,17.22
2018-06-29T04:30:08.008Z,17.38
2018-06-29T04:31:07.980Z,17.36
2018-06-29T04:32:07.947Z,17.51
2018-06-29T04:33:08.006Z,17.49
2018-06-29T04:34:07.886Z,17.65
2018-06-29T04:35:07.854Z,17.68
2018-06-29T04:36:07.831Z,17.76
2018-06-29T04:37:07.787Z,17.86
2018-06-29T04:38:07.755Z,17.86
2018-06-29T04:39:07.724Z,18.07
2018-06-29T04:40:07.691Z,18.05
2018-06-29T04:41:07.674Z,18.16
2018-06-29T04:42:07.622Z,18.20
2018-06-29T04:43:07.594Z,18.26
2018-06-29T04:44:07.586Z,18.38
2018-06-29T04:45:07.538Z,18.49
2018-06-29T04:46:07.499Z,18.47
2018-06-29T04:47:07.466Z,18.58
2018-06-29T04:48:07.440Z,18.66
2018-06-29T04:49:07.400Z,18.70
2018-06-29T04:50:07.375Z,18.84
2018-06-29T04:51:07.333Z,18.92
2018-06-29T04:52:07.310Z,19.04
2018-06-29T04:53:07.277Z,19.15
2018-06-29T04:54:07.245Z,19.19
2018-06-29T04:55:07.212Z,19.14
2018-06-29T04:56:07.183Z,19.27
2018-06-29T04:57:07.147Z,19.30
2018-06-29T04:58:07.119Z,19.47
2018-06-29T04:59:07.081Z,19.52
2018-06-29T05:00:07.069Z,19.56
2018-06-29T05:01:07.024Z,19.64
2018-06-29T05:02:06.992Z,19.64
2018-06-29T05:03:06.960Z,19.81
2018-06-29T05:04:06.929Z,19.88
2018-06-29T05:05:06.899Z,19.88
2018-06-29T05:06:06.868Z,19.96
2018-06-29T05:07:06.832Z,19.95
2018-06-29T05:08:06.802Z,20.16
2018-06-29T05:09:06.773Z,20.16
2018-06-29T05:10:06.741Z,20.24
2018-06-29T05:11:06.709Z,20.34
2018-06-29T05:12:06.677Z,20.34
2018-06-29T05:13:06.648Z,20.52
2018-06-29T05:14:06.617Z,20.58
2018-06-29T05:15:06.583Z,20.66
2018-06-29T05:16:06.558Z,20.81
2018-06-29T05:17:06.524Z,20.75
2018-06-29T05:18:06.489Z,20.81
2018-06-29T05:19:06.460Z,20.78
2018-06-29T05:20:06.431Z,20.77
2018-06-29T05:21:06.399Z,20.78
2018-06-29T05:22:06.369Z,20.80
2018-06-29T05:23:06.337Z,20.90
2018-06-29T05:24:06.304Z,20.84
2018-06-29T05:25:06.276Z,20.78
2018-06-29T05:26:06.247Z,20.84
2018-06-29T05:27:06.213Z,20.88
2018-06-29T05:28:06.181Z,21.02
2018-06-29T05:29:06.151Z,21.05
2018-06-29T05:30:06.121Z,21.07
2018-06-29T05:31:06.082Z,21.22
2018-06-29T05:32:06.077Z,21.30
2018-06-29T05:33:06.030Z,21.42
2018-06-29T05:34:05.999Z,21.55
2018-06-29T05:35:06.528Z,21.75
2018-06-29T05:36:05.942Z,21.79
2018-06-29T05:37:06.528Z,21.98
2018-06-29T05:38:05.877Z,22.04
2018-06-29T05:39:05.841Z,22.02
2018-06-29T05:40:05.818Z,22.11
2018-06-29T05:41:05.787Z,22.15
2018-06-29T05:42:05.757Z,22.26
2018-06-29T05:43:05.723Z,22.22
2018-06-29T05:44:05.694Z,22.25
2018-06-29T05:45:05.658Z,22.30
2018-06-29T05:46:05.657Z,22.30
2018-06-29T05:47:05.616Z,22.29
2018-06-29T05:48:05.573Z,22.44
2018-06-29T05:49:05.544Z,22.33
2018-06-29T05:50:05.512Z,22.25
2018-06-29T05:51:05.486Z,22.39
2018-06-29T05:52:05.452Z,22.36
2018-06-29T05:53:05.465Z,22.50
2018-06-29T05:54:05.400Z,22.68
2018-06-29T05:55:05.364Z,22.81
2018-06-29T05:56:05.331Z,22.94
2018-06-29T05:57:05.308Z,23.06
2018-06-29T05:58:05.275Z,23.08
2018-06-29T05:59:05.245Z,23.17
2018-06-29T06:00:05.214Z,23.32
2018-06-29T06:01:05.186Z,23.32
2018-06-29T06:02:05.161Z,23.55
2018-06-29T06:03:05.125Z,23.66
2018-06-29T06:04:05.096Z,23.68
2018-06-29T06:05:05.069Z,23.91
2018-06-29T06:06:05.039Z,23.86
2018-06-29T06:07:05.007Z,23.96
2018-06-29T06:08:04.978Z,24.18
2018-06-29T06:09:04.949Z,24.23
2018-06-29T06:10:04.972Z,24.29
2018-06-29T06:11:04.891Z,24.32
2018-06-29T06:12:04.862Z,24.32
2018-06-29T06:13:04.834Z,24.20
2018-06-29T06:14:04.805Z,24.28
2018-06-29T06:15:04.772Z,24.36
2018-06-29T06:16:04.766Z,24.30
2018-06-29T06:17:04.720Z,24.28
2018-06-29T06:18:04.689Z,24.35
2018-06-29T06:19:04.660Z,24.50
2018-06-29T06:20:04.635Z,24.76
2018-06-29T06:21:04.655Z,24.65
2018-06-29T06:22:04.640Z,24.58
2018-06-29T06:23:04.544Z,24.69
2018-06-29T06:24:04.516Z,24.74
2018-06-29T06:25:04.487Z,24.74
2018-06-29T06:26:04.458Z,24.77
2018-06-29T06:27:04.432Z,24.76
2018-06-29T06:28:04.403Z,24.93
2018-06-29T06:29:04.374Z,25.06
2018-06-29T06:30:04.337Z,25.04
2018-06-29T06:31:04.316Z,25.10
2018-06-29T06:32:04.291Z,25.13
2018-06-29T06:33:04.267Z,25.18
2018-06-29T06:34:04.229Z,25.28
2018-06-29T06:35:04.202Z,25.38
2018-06-29T06:36:04.175Z,25.41
2018-06-29T06:37:04.147Z,25.46
2018-06-29T06:38:04.124Z,25.46
2018-06-29T06:39:04.091Z,25.53
2018-06-29T06:40:04.067Z,25.54
2018-06-29T06:41:04.071Z,25.51
2018-06-29T06:42:04.007Z,25.60
2018-06-29T06:43:03.977Z,25.59
2018-06-29T06:44:03.947Z,25.72
2018-06-29T06:45:03.919Z,25.81
2018-06-29T06:46:03.894Z,25.53
2018-06-29T06:47:03.954Z,25.50
2018-06-29T06:48:03.839Z,25.51
2018-06-29T06:49:03.809Z,25.48
2018-06-29T06:50:03.785Z,25.62
2018-06-29T06:51:03.755Z,25.62
2018-06-29T06:52:03.726Z,25.68
2018-06-29T06:53:03.695Z,25.77
2018-06-29T06:54:03.672Z,25.65
2018-06-29T06:55:03.641Z,25.73
2018-06-29T06:56:03.617Z,25.88
2018-06-29T06:57:03.592Z,25.93
2018-06-29T06:58:03.559Z,25.98
2018-06-29T06:59:03.533Z,26.10
2018-06-29T07:00:03.503Z,26.05
2018-06-29T07:01:03.473Z,25.91
2018-06-29T07:02:03.448Z,25.84
2018-06-29T07:03:03.419Z,25.78
2018-06-29T07:04:03.391Z,25.95
2018-06-29T07:05:03.366Z,25.95
2018-06-29T07:06:03.438Z,26.06
2018-06-29T07:07:03.303Z,26.15
2018-06-29T07:08:03.799Z,26.38
2018-06-29T07:09:03.282Z,26.59
2018-06-29T07:10:03.226Z,26.75
2018-06-29T07:11:03.199Z,27.11
2018-06-29T07:12:03.171Z,27.35
2018-06-29T07:13:03.144Z,27.49
2018-06-29T07:14:03.109Z,27.65
2018-06-29T07:15:03.090Z,27.80
2018-06-29T07:16:03.060Z,27.98
2018-06-29T07:17:03.035Z,27.95
2018-06-29T07:18:03.008Z,28.02
2018-06-29T07:19:02.980Z,28.14
2018-06-29T07:20:02.953Z,28.17
2018-06-29T07:21:02.937Z,28.26
2018-06-29T07:22:02.898Z,28.20
2018-06-29T07:23:02.872Z,28.45
2018-06-29T07:24:02.864Z,28.56
2018-06-29T07:25:02.821Z,28.75
2018-06-29T07:26:02.795Z,28.82
2018-06-29T07:27:02.766Z,29.02
2018-06-29T07:28:02.740Z,29.12
2018-06-29T07:29:02.713Z,29.36
2018-06-29T07:30:02.723Z,29.17
2018-06-29T07:31:02.660Z,29.54
2018-06-29T07:32:02.634Z,29.42
2018-06-29T07:33:02.616Z,29.66
2018-06-29T07:34:02.583Z,29.75
2018-06-29T07:35:02.551Z,29.94
2018-06-29T07:36:02.534Z,29.86
2018-06-29T07:37:02.504Z,29.79
2018-06-29T07:38:02.476Z,29.91
2018-06-29T07:39:02.450Z,29.91
2018-06-29T07:40:02.427Z,30.06
2018-06-29T07:41:02.400Z,30.16
2018-06-29T07:42:02.375Z,30.27
2018-06-29T07:43:02.347Z,30.16
2018-06-29T07:44:02.323Z,30.25
2018-06-29T07:45:02.291Z,30.44
2018-06-29T07:46:02.272Z,30.40
2018-06-29T07:47:02.249Z,30.34
2018-06-29T07:48:02.222Z,30.47
2018-06-29T07:49:02.198Z,30.55
2018-06-29T07:50:02.167Z,30.66
2018-06-29T07:51:02.146Z,30.68
2018-06-29T07:52:02.116Z,30.72
2018-06-29T07:53:02.097Z,30.85
2018-06-29T07:54:02.068Z,30.96
2018-06-29T07:55:02.040Z,30.83
2018-06-29T07:56:02.016Z,30.99
2018-06-29T07:57:01.991Z,30.99
2018-06-29T07:58:02.019Z,31.03
2018-06-29T07:59:01.942Z,31.02
2018-06-29T08:00:01.918Z,30.92
2018-06-29T08:01:01.890Z,31.17
2018-06-29T08:02:01.866Z,31.12
2018-06-29T08:03:01.841Z,31.22
2018-06-29T08:04:01.822Z,31.18
2018-06-29T08:05:01.790Z,31.25
2018-06-29T08:06:01.766Z,30.91
2018-06-29T08:07:01.739Z,30.62
2018-06-29T08:08:01.716Z,30.65
2018-06-29T08:09:01.716Z,30.62
2018-06-29T08:10:01.669Z,30.53
2018-06-29T08:11:01.640Z,30.63
2018-06-29T08:12:01.614Z,30.44
2018-06-29T08:13:01.590Z,30.32
2018-06-29T08:14:01.566Z,30.32
2018-06-29T08:15:01.539Z,30.78
2018-06-29T08:16:01.516Z,30.70
2018-06-29T08:17:01.494Z,30.75
2018-06-29T08:18:01.468Z,30.87
2018-06-29T08:19:01.466Z,30.84
2018-06-29T08:20:01.420Z,31.06
2018-06-29T08:21:01.395Z,31.12
2018-06-29T08:22:01.423Z,31.06
2018-06-29T08:23:01.345Z,31.05
2018-06-29T08:24:01.321Z,31.29
2018-06-29T08:25:01.295Z,31.65
2018-06-29T08:26:01.270Z,31.70
2018-06-29T08:27:01.245Z,31.58
2018-06-29T08:28:01.220Z,31.66
2018-06-29T08:29:01.199Z,31.85
2018-06-29T08:30:01.173Z,31.97
2018-06-29T08:31:01.148Z,32.03
2018-06-29T08:32:01.124Z,32.16
2018-06-29T08:33:01.099Z,32.08
2018-06-29T08:34:01.101Z,31.78
2018-06-29T08:35:01.053Z,31.96
2018-06-29T08:36:01.025Z,31.94
2018-06-29T08:37:01.003Z,31.90
2018-06-29T08:38:00.980Z,32.12
2018-06-29T08:39:00.954Z,32.27
2018-06-29T08:40:00.932Z,32.48
2018-06-29T08:41:00.903Z,32.52
2018-06-29T08:42:00.881Z,32.86
2018-06-29T08:43:00.883Z,33.04
2018-06-29T08:44:00.854Z,32.63
2018-06-29T08:45:00.807Z,32.85
2018-06-29T08:46:00.787Z,32.93
2018-06-29T08:47:00.818Z,33.01
2018-06-29T08:48:00.734Z,33.05
2018-06-29T08:49:00.717Z,32.86
2018-06-29T08:50:00.693Z,32.67
2018-06-29T08:51:00.696Z,32.95
2018-06-29T08:52:00.644Z,33.12
2018-06-29T08:53:00.615Z,32.82
2018-06-29T08:54:00.614Z,32.58
2018-06-29T08:55:00.635Z,32.67
2018-06-29T08:56:00.551Z,32.31
2018-06-29T08:57:00.527Z,32.15
2018-06-29T08:58:00.503Z,32.18
2018-06-29T08:59:00.481Z,32.11
2018-06-29T09:00:00.453Z,32.09
2018-06-29T09:01:00.463Z,32.11
2018-06-29T09:02:00.420Z,32.19
2018-06-29T09:03:00.385Z,32.49
2018-06-29T09:04:00.362Z,32.40
2018-06-29T09:05:00.418Z,32.74
2018-06-29T09:06:00.315Z,32.64
2018-06-29T09:07:00.306Z,32.55
2018-06-29T09:08:00.268Z,32.77
2018-06-29T09:09:00.246Z,32.86
2018-06-29T09:10:00.222Z,32.71
2018-06-29T09:11:00.259Z,33.09
2018-06-29T09:12:00.171Z,33.14
2018-06-29T09:13:00.149Z,33.02
2018-06-29T09:14:00.631Z,32.92
2018-06-29T09:15:00.102Z,32.78
2018-06-29T09:16:00.081Z,32.73
2018-06-29T09:17:00.054Z,32.77
2018-06-29T09:18:00.036Z,32.78
2018-06-29T09:19:00.045Z,33.07
2018-06-29T09:19:59.982Z,33.32
2018-06-29T09:20:59.960Z,33.46
2018-06-29T09:21:59.940Z,33.47
2018-06-29T09:22:59.911Z,33.34
2018-06-29T09:23:59.890Z,33.31
2018-06-29T09:24:59.865Z,33.52
2018-06-29T09:25:59.846Z,33.36
2018-06-29T09:26:59.825Z,33.50
2018-06-29T09:27:59.798Z,33.50
2018-06-29T09:28:59.772Z,33.86
2018-06-29T09:29:59.747Z,33.61
2018-06-29T09:30:59.723Z,33.61
2018-06-29T09:31:59.700Z,33.86
2018-06-29T09:32:59.680Z,33.84
2018-06-29T09:33:59.658Z,33.49
2018-06-29T09:34:59.630Z,33.73
2018-06-29T09:35:59.608Z,33.55
2018-06-29T09:36:59.585Z,33.50
2018-06-29T09:37:59.566Z,33.65
2018-06-29T09:38:59.540Z,33.84
2018-06-29T09:39:59.513Z,33.68
2018-06-29T09:40:59.488Z,33.71
2018-06-29T09:41:59.466Z,33.84
2018-06-29T09:42:59.447Z,34.18
2018-06-29T09:43:59.416Z,34.10
2018-06-29T09:44:59.403Z,34.03
2018-06-29T09:45:59.380Z,34.27
2018-06-29T09:46:59.347Z,34.27
2018-06-29T09:47:59.429Z,34.62
2018-06-29T09:48:59.301Z,34.55
2018-06-29T09:49:59.281Z,34.80
2018-06-29T09:50:59.276Z,34.95
2018-06-29T09:51:59.236Z,34.95
2018-06-29T09:52:59.211Z,34.93
2018-06-29T09:53:59.221Z,34.73
2018-06-29T09:54:59.165Z,34.95
2018-06-29T09:55:59.143Z,35.26
2018-06-29T09:56:59.118Z,35.45
2018-06-29T09:57:59.113Z,35.67
2018-06-29T09:58:59.072Z,35.55
2018-06-29T09:59:59.050Z,35.56
2018-06-29T10:00:59.055Z,35.17
2018-06-29T10:01:59.002Z,35.44
2018-06-29T10:02:58.980Z,35.27
2018-06-29T10:03:58.957Z,35.27
2018-06-29T10:04:58.933Z,35.76
2018-06-29T10:05:58.914Z,35.80
2018-06-29T10:06:58.894Z,35.73
2018-06-29T10:07:58.866Z,35.86
2018-06-29T10:08:58.840Z,36.36
2018-06-29T10:09:58.819Z,36.14
2018-06-29T10:10:58.794Z,36.16
2018-06-29T10:11:58.773Z,36.16
2018-06-29T10:12:58.769Z,35.52
2018-06-29T10:13:58.730Z,35.44
2018-06-29T10:14:58.704Z,35.73
2018-06-29T10:15:58.685Z,36.37
2018-06-29T10:16:58.661Z,36.45
2018-06-29T10:17:58.653Z,37.07
2018-06-29T10:18:58.638Z,36.68
2018-06-29T10:19:58.607Z,36.84
2018-06-29T10:20:58.572Z,36.80
2018-06-29T10:21:58.545Z,37.07
2018-06-29T10:22:58.523Z,36.88
2018-06-29T10:23:58.502Z,37.58
2018-06-29T10:24:58.471Z,37.30
2018-06-29T10:25:58.456Z,37.55
2018-06-29T10:26:58.433Z,38.12
2018-06-29T10:27:58.468Z,38.20
2018-06-29T10:28:58.410Z,38.23
2018-06-29T10:29:58.367Z,38.24
2018-06-29T10:30:58.345Z,38.06
2018-06-29T10:31:58.324Z,37.87
2018-06-29T10:32:58.329Z,37.53
2018-06-29T10:33:58.275Z,37.42
2018-06-29T10:34:58.253Z,37.55
2018-06-29T10:35:58.238Z,38.24
2018-06-29T10:36:58.215Z,38.69
2018-06-29T10:37:58.191Z,38.64
2018-06-29T10:38:58.166Z,38.83
2018-06-29T10:39:58.145Z,38.65
2018-06-29T10:40:58.122Z,38.46
2018-06-29T10:41:58.114Z,39.09
2018-06-29T10:42:58.094Z,39.07
2018-06-29T10:43:58.058Z,38.57
2018-06-29T10:44:58.100Z,38.69
2018-06-29T10:45:58.014Z,38.69
2018-06-29T10:46:57.990Z,39.36
2018-06-29T10:47:57.967Z,39.80
2018-06-29T10:48:57.944Z,39.36
2018-06-29T10:49:58.000Z,39.11
2018-06-29T10:50:57.902Z,39.70
2018-06-29T10:51:57.882Z,40.05
2018-06-29T10:52:57.971Z,39.70
2018-06-29T10:53:57.836Z,39.33
2018-06-29T10:54:58.160Z,39.55
2018-06-29T10:55:57.791Z,39.26
2018-06-29T10:56:57.771Z,39.60
2018-06-29T10:57:57.755Z,40.11
2018-06-29T10:58:57.731Z,40.61
2018-06-29T10:59:57.708Z,39.55
2018-06-29T11:00:57.682Z,38.74
2018-06-29T11:01:57.662Z,38.30
2018-06-29T11:02:57.638Z,38.67
2018-06-29T11:03:57.620Z,38.71
2018-06-29T11:04:57.598Z,38.96
2018-06-29T11:05:57.602Z,38.84
2018-06-29T11:06:57.556Z,39.12
2018-06-29T11:07:57.534Z,39.46
2018-06-29T11:08:57.512Z,38.74
2018-06-29T11:09:57.488Z,39.00
2018-06-29T11:10:57.535Z,39.04
2018-06-29T11:11:57.474Z,39.09
2018-06-29T11:12:57.425Z,38.95
2018-06-29T11:13:57.404Z,39.34
2018-06-29T11:14:57.501Z,38.99
2018-06-29T11:15:57.360Z,38.91
2018-06-29T11:16:57.339Z,38.96
2018-06-29T11:17:57.316Z,38.74
2018-06-29T11:18:57.295Z,39.43
2018-06-29T11:19:57.286Z,39.77
2018-06-29T11:20:57.246Z,40.00
2018-06-29T11:21:57.227Z,40.46
2018-06-29T11:22:57.208Z,40.81
2018-06-29T11:23:57.182Z,41.06
2018-06-29T11:24:57.186Z,40.40
2018-06-29T11:25:57.143Z,40.50
2018-06-29T11:26:57.120Z,40.00
2018-06-29T11:27:57.101Z,39.85
2018-06-29T11:28:57.079Z,39.60
2018-06-29T11:29:57.057Z,39.34
2018-06-29T11:30:57.036Z,40.18
2018-06-29T11:31:57.014Z,40.15
2018-06-29T11:32:56.992Z,40.47
2018-06-29T11:33:56.969Z,40.70
2018-06-29T11:34:56.953Z,40.92
2018-06-29T11:35:56.930Z,40.54
2018-06-29T11:36:56.902Z,40.73
2018-06-29T11:37:56.883Z,40.69
2018-06-29T11:38:56.864Z,40.23
2018-06-29T11:39:56.844Z,40.47
2018-06-29T11:40:56.822Z,40.27
2018-06-29T11:41:56.798Z,40.88
2018-06-29T11:42:56.773Z,41.04
2018-06-29T11:43:56.756Z,40.73
2018-06-29T11:44:56.735Z,40.15
2018-06-29T11:45:56.713Z,40.59
2018-06-29T11:46:56.692Z,40.40
2018-06-29T11:47:56.671Z,40.20
2018-06-29T11:48:56.669Z,40.12
2018-06-29T11:49:56.628Z,40.46
2018-06-29T11:50:56.607Z,40.99
2018-06-29T11:51:56.584Z,41.33
2018-06-29T11:52:56.565Z,41.19
2018-06-29T11:53:56.543Z,41.36
2018-06-29T11:54:56.520Z,40.68
2018-06-29T11:55:56.498Z,40.41
2018-06-29T11:56:56.479Z,40.78
2018-06-29T11:57:56.464Z,40.95
2018-06-29T11:58:56.436Z,40.75
2018-06-29T11:59:56.413Z,40.88
2018-06-29T12:00:56.393Z,40.75
2018-06-29T12:01:56.369Z,40.77
2018-06-29T12:02:56.351Z,40.62
2018-06-29T12:03:56.326Z,39.77
2018-06-29T12:04:56.307Z,39.60
2018-06-29T12:05:56.282Z,39.72
2018-06-29T12:06:56.261Z,40.73
2018-06-29T12:07:56.241Z,40.30
2018-06-29T12:08:56.232Z,39.89
2018-06-29T12:09:56.198Z,39.87
2018-06-29T12:10:56.174Z,39.90
2018-06-29T12:11:56.156Z,39.68
2018-06-29T12:12:56.135Z,40.05
2018-06-29T12:13:56.113Z,39.83
2018-06-29T12:14:56.159Z,40.44
2018-06-29T12:15:56.084Z,40.46
2018-06-29T12:16:56.048Z,40.40
2018-06-29T12:17:56.028Z,39.46
2018-06-29T12:18:56.005Z,39.65
2018-06-29T12:19:55.977Z,39.92
2018-06-29T12:20:56.098Z,40.00
2018-06-29T12:21:55.985Z,40.50
2018-06-29T12:22:55.917Z,40.90
2018-06-29T12:23:55.896Z,41.62
2018-06-29T12:24:55.874Z,42.38
2018-06-29T12:25:55.854Z,41.45
2018-06-29T12:26:55.842Z,41.10
2018-06-29T12:27:55.819Z,41.38
2018-06-29T12:28:55.786Z,41.50
2018-06-29T12:29:55.764Z,41.06
2018-06-29T12:30:55.742Z,41.37
2018-06-29T12:31:55.721Z,41.66
2018-06-29T12:32:55.699Z,41.53
2018-06-29T12:33:55.680Z,42.12
2018-06-29T12:34:55.655Z,41.53
2018-06-29T12:35:55.635Z,40.91
2018-06-29T12:36:55.611Z,40.51
2018-06-29T12:37:55.594Z,40.43
2018-06-29T12:38:55.571Z,40.08
2018-06-29T12:39:55.552Z,40.04
2018-06-29T12:40:55.522Z,39.99
2018-06-29T12:41:55.505Z,40.31
2018-06-29T12:42:55.483Z,39.90
2018-06-29T12:43:55.463Z,39.31
2018-06-29T12:44:55.441Z,39.53
2018-06-29T12:45:55.419Z,39.46
2018-06-29T12:46:55.397Z,39.04
2018-06-29T12:47:55.376Z,38.97
2018-06-29T12:48:55.382Z,39.87
2018-06-29T12:49:55.333Z,40.04
2018-06-29T12:50:56.252Z,40.05
2018-06-29T12:51:55.285Z,40.43